Time;durP1;ratioP1;P1;durP2;ratioP2;P2;SDS_P1;SDS_P2;PMS_P1;PMS_P2;Temp;Humidity;BMP_temperature;BMP_pressure;BME280_temperature;BME280_humidity;BME280_pressure;Samples;Min_cycle;Max_cycle;Signal;HPM_P1;HPM_P2
2022/06/08 00:01:10;;;;;;;7.47;3.97;;;10.90;99.90;;;;;;5075367;28;20531;-69
2022/06/08 00:03:47;;;;;;;5.80;3.70;;;10.90;99.90;;;;;;5075316;28;20079;-69
2022/06/08 00:06:14;;;;;;;7.15;3.70;;;10.90;99.90;;;;;;5058834;28;20086;-70
2022/06/08 00:08:40;;;;;;;7.57;3.58;;;10.90;99.90;;;;;;5076159;28;20493;-70
2022/06/08 00:11:06;;;;;;;4.72;4.00;;;10.80;99.90;;;;;;5075155;28;20115;-70
2022/06/08 00:13:31;;;;;;;7.10;4.45;;;10.80;99.90;;;;;;5075048;28;20040;-70
2022/06/08 00:15:57;;;;;;;6.78;4.28;;;10.80;99.90;;;;;;5075020;28;20119;-70
2022/06/08 00:18:23;;;;;;;7.13;4.53;;;10.80;99.90;;;;;;5075213;28;20127;-70
2022/06/08 00:20:49;;;;;;;11.27;4.80;;;10.80;99.90;;;;;;5074958;28;20515;-70
2022/06/08 00:23:15;;;;;;;6.38;4.32;;;10.70;99.90;;;;;;5074903;28;20044;-70
2022/06/08 00:25:40;;;;;;;6.85;4.82;;;10.70;99.90;;;;;;5058214;28;20041;-70
2022/06/08 00:28:06;;;;;;;4.95;4.28;;;10.70;99.90;;;;;;5074784;28;20044;-69
2022/06/08 00:30:33;;;;;;;8.70;4.47;;;10.60;99.90;;;;;;5074689;28;20046;-69
2022/06/08 00:32:58;;;;;;;6.97;4.55;;;10.60;99.90;;;;;;5074935;28;20033;-70
2022/06/08 00:35:25;;;;;;;5.95;4.38;;;10.60;99.90;;;;;;5074649;28;20274;-70
2022/06/08 00:37:50;;;;;;;7.03;5.20;;;10.60;99.90;;;;;;5074512;28;20128;-70
2022/06/08 00:40:19;;;;;;;5.82;3.67;;;10.60;99.90;;;;;;5074606;28;20123;-70
2022/06/08 00:42:45;;;;;;;5.60;4.10;;;10.50;99.90;;;;;;5074825;28;20036;-70
2022/06/08 00:45:15;;;;;;;8.70;4.68;;;10.50;99.90;;;;;;5074552;28;20467;-70
2022/06/08 00:47:48;;;;;;;6.35;4.88;;;10.50;99.90;;;;;;5074365;28;20049;-69
2022/06/08 00:50:22;;;;;;;;;;;10.50;99.90;;;;;;5074855;28;20496;-69
2022/06/08 00:52:49;;;;;;;7.47;5.35;;;10.40;99.90;;;;;;5073576;28;19916;-69
2022/06/08 00:55:18;;;;;;;8.38;4.90;;;10.40;99.90;;;;;;5075455;28;20053;-69
2022/06/08 00:57:51;;;;;;;5.22;3.85;;;10.40;99.90;;;;;;5074234;28;20040;-69
2022/06/08 01:00:27;;;;;;;6.30;5.10;;;10.40;99.90;;;;;;5074254;28;20044;-69
2022/06/08 01:02:53;;;;;;;6.78;4.72;;;10.40;99.90;;;;;;5074336;28;20124;-69
2022/06/08 01:05:30;;;;;;;7.78;5.57;;;10.30;99.90;;;;;;5074427;28;20082;-69
2022/06/08 01:08:00;;;;;;;8.45;4.50;;;10.40;99.90;;;;;;5074055;28;20048;-70
2022/06/08 01:10:45;;;;;;;6.88;4.50;;;10.40;99.90;;;;;;5073980;28;20040;-69
2022/06/08 01:13:11;;;;;;;6.72;4.70;;;10.30;99.90;;;;;;5057399;28;20432;-70
2022/06/08 01:15:39;;;;;;;10.20;5.43;;;10.30;99.90;;;;;;5074179;28;20408;-69
2022/06/08 01:18:06;;;;;;;8.20;4.80;;;10.30;99.90;;;;;;5074083;28;20036;-69
2022/06/08 01:20:31;;;;;;;9.95;6.03;;;10.30;99.90;;;;;;5074107;28;20040;-69
2022/06/08 01:22:57;;;;;;;6.55;5.15;;;10.30;99.90;;;;;;5073798;28;20485;-69
2022/06/08 01:25:27;;;;;;;6.45;5.22;;;10.30;99.90;;;;;;5073782;28;20036;-69
2022/06/08 01:28:18;;;;;;;10.35;6.20;;;10.30;99.90;;;;;;5073705;28;20044;-69
2022/06/08 01:30:52;;;;;;;10.02;7.07;;;10.40;99.90;;;;;;5073640;28;20051;-69
2022/06/08 01:33:21;;;;;;;11.30;6.88;;;10.30;99.90;;;;;;5073964;28;20036;-69
2022/06/08 01:36:17;;;;;;;11.90;7.47;;;10.40;99.90;;;;;;5073528;28;20534;-69
2022/06/08 01:39:06;;;;;;;13.48;7.63;;;10.40;99.90;;;;;;5073498;28;20044;-69
2022/06/08 01:41:47;;;;;;;12.32;7.28;;;10.40;99.90;;;;;;5073485;28;20036;-69
2022/06/08 01:44:39;;;;;;;12.07;8.40;;;10.40;99.90;;;;;;5074518;28;20044;-69
2022/06/08 01:47:15;;;;;;;12.68;9.35;;;10.50;99.90;;;;;;5056691;28;20412;-69
2022/06/08 01:49:54;;;;;;;15.95;10.07;;;10.40;99.90;;;;;;5073259;28;20120;-70
2022/06/08 01:52:37;;;;;;;17.05;10.52;;;10.40;99.90;;;;;;5073244;28;20428;-70
2022/06/08 01:55:23;;;;;;;23.50;12.00;;;10.50;99.90;;;;;;5073210;28;20048;-69
2022/06/08 01:58:03;;;;;;;16.55;11.88;;;10.60;99.90;;;;;;5073335;28;20512;-69
2022/06/08 02:00:37;;;;;;;20.27;11.82;;;10.60;99.90;;;;;;5074376;28;20116;-69
2022/06/08 02:03:18;;;;;;;16.45;11.93;;;10.70;99.90;;;;;;5073085;28;20048;-69
2022/06/08 02:05:53;;;;;;;16.02;11.85;;;10.80;99.90;;;;;;5056582;28;20044;-69
2022/06/08 02:08:25;;;;;;;18.75;12.15;;;10.80;99.90;;;;;;5073018;28;20404;-69
2022/06/08 02:11:15;;;;;;;19.05;11.60;;;10.90;99.90;;;;;;5072895;28;20044;-69
2022/06/08 02:14:03;;;;;;;16.67;11.77;;;11.00;99.90;;;;;;5072834;28;20047;-69
2022/06/08 02:17:03;;;;;;;18.42;11.38;;;11.00;99.90;;;;;;5073025;28;20051;-70
2022/06/08 02:20:11;;;;;;;14.77;11.63;;;11.00;99.90;;;;;;5056055;28;20044;-69
2022/06/08 02:22:42;;;;;;;14.50;11.05;;;11.00;99.90;;;;;;5064416;28;20056;-70
2022/06/08 02:25:20;;;;;;;19.60;12.02;;;11.00;99.90;;;;;;5072606;28;20037;-70
2022/06/08 02:27:51;;;;;;;21.33;13.30;;;11.10;99.90;;;;;;5072500;28;20501;-70
2022/06/08 02:30:21;;;;;;;17.92;12.40;;;11.10;99.90;;;;;;5072398;28;20041;-69
2022/06/08 02:35:57;;;;;;;22.07;14.13;;;11.10;99.90;;;;;;5072390;28;20459;-69
2022/06/08 02:38:29;;;;;;;20.83;12.40;;;11.10;99.90;;;;;;5072338;28;20048;-69
2022/06/08 02:40:57;;;;;;;18.40;14.02;;;11.10;99.90;;;;;;5055970;28;20083;-69
2022/06/08 02:43:32;;;;;;;13.93;11.68;;;11.20;99.90;;;;;;5072265;28;20500;-69
2022/06/08 02:46:21;;;;;;;18.20;13.45;;;11.20;99.90;;;;;;5055565;28;20044;-69
2022/06/08 02:48:46;;;;;;;20.33;13.23;;;11.20;99.90;;;;;;5062519;28;20489;-70
2022/06/08 02:51:12;;;;;;;16.67;12.85;;;11.20;99.90;;;;;;5072128;28;20040;-70
2022/06/08 02:53:52;;;;;;;19.40;14.20;;;11.30;99.90;;;;;;5072437;28;20040;-70
2022/06/08 02:56:35;;;;;;;20.48;13.05;;;11.30;99.90;;;;;;5072098;28;20048;-70
2022/06/08 02:59:20;;;;;;;16.60;13.38;;;11.30;99.90;;;;;;5072285;28;20044;-69
2022/06/08 03:02:14;;;;;;;19.23;13.75;;;11.40;99.90;;;;;;5072357;28;20051;-70
2022/06/08 03:05:03;;;;;;;19.58;14.23;;;11.40;99.90;;;;;;5072290;28;20044;-70
2022/06/08 03:07:39;;;;;;;19.00;13.48;;;11.30;99.90;;;;;;5055106;28;20123;-70
2022/06/08 03:10:08;;;;;;;20.92;14.40;;;11.30;99.90;;;;;;5071991;28;20045;-70
2022/06/08 03:12:48;;;;;;;18.30;14.15;;;11.30;99.90;;;;;;5071927;28;20045;-69
2022/06/08 03:15:17;;;;;;;17.77;13.95;;;11.30;99.90;;;;;;5071889;28;20512;-69
2022/06/08 03:17:47;;;;;;;22.63;14.23;;;11.30;99.90;;;;;;5071467;28;20036;-69
2022/06/08 03:20:13;;;;;;;24.50;14.80;;;11.30;99.90;;;;;;5072638;28;20366;-69
2022/06/08 03:22:39;;;;;;;19.73;13.07;;;11.40;99.90;;;;;;5071762;28;20044;-69
2022/06/08 03:25:05;;;;;;;20.58;12.70;;;11.30;99.90;;;;;;5071767;28;20037;-69
2022/06/08 03:27:31;;;;;;;17.70;13.60;;;11.40;99.90;;;;;;5054940;28;20045;-69
2022/06/08 03:29:56;;;;;;;21.83;14.82;;;11.40;99.90;;;;;;5071762;28;20051;-69
2022/06/08 03:32:22;;;;;;;19.40;14.10;;;11.40;99.90;;;;;;5073234;28;20033;-69
2022/06/08 03:34:48;;;;;;;21.40;13.98;;;11.40;99.90;;;;;;5071721;28;20041;-69
2022/06/08 03:37:13;;;;;;;17.35;14.43;;;11.50;99.90;;;;;;5071666;28;20040;-69
2022/06/08 03:39:39;;;;;;;18.88;14.75;;;11.50;99.90;;;;;;5071926;28;20099;-69
2022/06/08 03:42:05;;;;;;;20.35;14.52;;;11.50;99.90;;;;;;5072736;28;20440;-69
2022/06/08 03:44:30;;;;;;;18.65;13.93;;;11.50;99.90;;;;;;5071654;28;20493;-69
2022/06/08 03:47:06;;;;;;;19.65;14.05;;;11.50;99.90;;;;;;5054899;28;20044;-70
2022/06/08 03:49:34;;;;;;;26.60;15.40;;;11.60;99.90;;;;;;5055023;28;20501;-70
2022/06/08 03:52:03;;;;;;;18.85;13.55;;;11.60;99.90;;;;;;5071569;28;20150;-70
2022/06/08 03:54:36;;;;;;;19.00;15.55;;;11.70;99.90;;;;;;5071486;28;20040;-70
2022/06/08 03:57:03;;;;;;;20.85;15.27;;;11.70;99.90;;;;;;5071475;28;20182;-70
2022/06/08 03:59:33;;;;;;;23.65;15.90;;;11.80;99.90;;;;;;5071402;28;20443;-69
2022/06/08 04:01:59;;;;;;;20.50;16.88;;;11.80;99.90;;;;;;5071422;28;20106;-69
2022/06/08 04:04:26;;;;;;;20.17;15.80;;;11.90;99.90;;;;;;5072649;28;20170;-69
2022/06/08 04:06:52;;;;;;;22.15;16.48;;;12.00;99.90;;;;;;5071131;28;20041;-69
2022/06/08 04:09:17;;;;;;;19.83;16.13;;;12.00;99.90;;;;;;5071407;28;20052;-69
2022/06/08 04:11:43;;;;;;;19.60;14.85;;;12.10;99.90;;;;;;5054650;28;20124;-69
2022/06/08 04:14:09;;;;;;;20.92;16.95;;;12.10;99.90;;;;;;5071575;28;20033;-69
2022/06/08 04:16:35;;;;;;;20.80;16.98;;;12.20;99.90;;;;;;5071300;28;20481;-70
2022/06/08 04:19:00;;;;;;;19.35;15.63;;;12.30;99.90;;;;;;5071210;28;20127;-69
2022/06/08 04:21:26;;;;;;;21.80;16.42;;;12.30;99.90;;;;;;5071261;28;20115;-69
2022/06/08 04:23:52;;;;;;;23.65;16.75;;;12.30;99.90;;;;;;5071208;28;20051;-69
2022/06/08 04:26:19;;;;;;;23.88;17.45;;;12.40;99.90;;;;;;5071456;28;20044;-69
2022/06/08 04:28:45;;;;;;;24.58;17.20;;;12.40;99.90;;;;;;5072938;28;20048;-69
2022/06/08 04:31:12;;;;;;;20.13;16.33;;;12.40;99.90;;;;;;5074797;28;20093;-69
2022/06/08 04:33:38;;;;;;;22.60;17.38;;;12.50;99.90;;;;;;5074743;28;20086;-69
2022/06/08 04:36:05;;;;;;;23.38;16.75;;;12.50;99.90;;;;;;5074698;28;20040;-69
2022/06/08 04:38:31;;;;;;;23.50;18.00;;;12.60;99.90;;;;;;5075408;28;20079;-69
2022/06/08 04:40:57;;;;;;;22.58;17.90;;;12.60;99.90;;;;;;5074892;28;20043;-69
2022/06/08 04:43:22;;;;;;;24.83;18.73;;;12.70;99.90;;;;;;5074551;28;20115;-70
2022/06/08 04:45:48;;;;;;;23.30;18.45;;;12.70;99.90;;;;;;5074493;28;20093;-70
2022/06/08 04:48:14;;;;;;;23.90;18.13;;;12.80;99.90;;;;;;5074421;28;20045;-69
2022/06/08 04:50:40;;;;;;;24.63;19.00;;;12.80;99.90;;;;;;5075903;28;20040;-69
2022/06/08 04:53:05;;;;;;;23.77;19.15;;;12.80;99.90;;;;;;5074356;28;20048;-69
2022/06/08 04:55:31;;;;;;;23.75;18.80;;;12.90;99.90;;;;;;5075656;28;20481;-69
2022/06/08 04:57:57;;;;;;;26.70;20.17;;;12.90;99.90;;;;;;5057572;28;20038;-69
2022/06/08 05:00:23;;;;;;;24.83;20.05;;;12.90;99.90;;;;;;5074326;28;20072;-69
2022/06/08 05:02:51;;;;;;;24.77;20.00;;;13.00;99.90;;;;;;5074480;28;20127;-69
2022/06/08 05:05:19;;;;;;;28.10;21.50;;;13.00;99.90;;;;;;5074097;28;20045;-69
2022/06/08 05:07:46;;;;;;;26.10;20.42;;;13.10;99.90;;;;;;5073947;28;20055;-69
2022/06/08 05:10:12;;;;;;;28.25;21.00;;;13.10;99.90;;;;;;5074043;28;20040;-70
2022/06/08 05:12:40;;;;;;;31.40;21.38;;;13.20;99.90;;;;;;5074019;28;20036;-70
2022/06/08 05:15:13;;;;;;;28.42;21.77;;;13.20;99.90;;;;;;5075502;28;20124;-69
2022/06/08 05:17:39;;;;;;;29.70;21.88;;;13.30;99.90;;;;;;5073922;28;20488;-69
2022/06/08 05:20:06;;;;;;;25.98;20.40;;;13.30;99.90;;;;;;5057199;28;20090;-70
2022/06/08 05:22:32;;;;;;;28.02;21.35;;;13.30;99.90;;;;;;5073798;28;20037;-70
2022/06/08 05:24:57;;;;;;;27.52;22.60;;;13.40;99.90;;;;;;5073820;28;20111;-70
2022/06/08 05:27:23;;;;;;;25.58;21.23;;;13.40;99.90;;;;;;5073978;28;20036;-70
2022/06/08 05:29:49;;;;;;;28.63;20.67;;;13.50;99.90;;;;;;5073658;28;20428;-70
2022/06/08 05:32:15;;;;;;;27.83;21.42;;;13.50;99.90;;;;;;5073673;28;20123;-70
2022/06/08 05:34:40;;;;;;;29.73;21.02;;;13.60;99.90;;;;;;5073888;28;20085;-69
2022/06/08 05:37:06;;;;;;;26.15;21.73;;;13.70;99.90;;;;;;5073504;28;20036;-69
2022/06/08 05:39:32;;;;;;;27.45;20.90;;;13.70;99.90;;;;;;5073167;28;20044;-69
2022/06/08 05:41:57;;;;;;;29.00;21.67;;;13.80;99.90;;;;;;5073494;28;20033;-69
2022/06/08 05:44:23;;;;;;;28.13;21.90;;;13.90;99.90;;;;;;5056810;28;20079;-69
2022/06/08 05:46:50;;;;;;;28.23;21.05;;;13.90;99.90;;;;;;5073318;28;20113;-70
2022/06/08 05:49:17;;;;;;;26.55;20.48;;;14.00;99.90;;;;;;5073430;28;20051;-69
2022/06/08 05:51:42;;;;;;;27.63;21.38;;;14.10;99.90;;;;;;5073569;28;20036;-69
2022/06/08 05:54:08;;;;;;;27.75;21.17;;;14.10;99.90;;;;;;5073229;28;20531;-69
2022/06/08 05:56:34;;;;;;;28.30;20.95;;;14.20;99.90;;;;;;5073169;28;20032;-69
2022/06/08 05:59:00;;;;;;;27.60;21.30;;;14.20;99.90;;;;;;5074329;28;20052;-69
2022/06/08 06:01:25;;;;;;;26.98;21.30;;;14.30;99.90;;;;;;5073099;28;20044;-69
2022/06/08 06:03:52;;;;;;;25.50;21.13;;;14.40;99.90;;;;;;5072982;28;20040;-69
2022/06/08 06:06:17;;;;;;;26.20;20.92;;;14.40;99.90;;;;;;5072954;28;20055;-69
2022/06/08 06:08:45;;;;;;;20.80;18.60;;;14.50;99.90;;;;;;5055954;28;20467;-70
2022/06/08 06:11:15;;;;;;;25.23;19.48;;;14.60;99.90;;;;;;5072905;28;20047;-69
2022/06/08 06:13:41;;;;;;;25.35;19.80;;;14.70;99.90;;;;;;5072835;28;20550;-69
2022/06/08 06:16:07;;;;;;;21.92;18.13;;;14.80;99.90;;;;;;5072796;28;20047;-68
2022/06/08 06:18:32;;;;;;;24.90;18.50;;;14.80;99.90;;;;;;5072613;28;20041;-68
2022/06/08 06:20:59;;;;;;;21.55;17.42;;;14.90;99.90;;;;;;5056285;28;20032;-68
2022/06/08 06:23:26;;;;;;;23.67;17.85;;;14.90;99.90;;;;;;5072888;28;20127;-68
2022/06/08 06:25:52;;;;;;;22.92;17.33;;;14.90;99.90;;;;;;5055924;28;20463;-68
2022/06/08 06:28:17;;;;;;;21.17;16.85;;;14.90;99.90;;;;;;5073944;28;20040;-68
2022/06/08 06:30:43;;;;;;;20.40;15.73;;;14.90;99.90;;;;;;5072450;28;20067;-68
2022/06/08 06:33:12;;;;;;;22.83;16.65;;;15.00;99.90;;;;;;5072755;28;20049;-69
2022/06/08 06:35:44;;;;;;;19.27;16.30;;;15.10;99.90;;;;;;5072384;28;20040;-68
2022/06/08 06:38:10;;;;;;;19.10;16.27;;;15.20;99.90;;;;;;5055718;28;20044;-68
2022/06/08 06:40:36;;;;;;;21.63;16.88;;;15.40;99.90;;;;;;5072635;28;20041;-68
2022/06/08 06:43:03;;;;;;;22.45;15.65;;;15.50;99.90;;;;;;5072317;28;20054;-68
2022/06/08 06:45:29;;;;;;;18.00;14.85;;;15.60;99.90;;;;;;5072688;28;20040;-68
2022/06/08 06:47:55;;;;;;;16.42;14.57;;;15.70;99.90;;;;;;5073679;28;20181;-68
2022/06/08 06:50:21;;;;;;;15.68;13.93;;;15.90;99.90;;;;;;5055118;28;20556;-68
2022/06/08 06:52:47;;;;;;;17.48;14.43;;;16.00;99.90;;;;;;5071850;28;20044;-68
2022/06/08 06:55:23;;;;;;;17.70;13.90;;;16.10;99.90;;;;;;5072107;28;20032;-68
2022/06/08 06:57:49;;;;;;;18.00;13.10;;;16.20;99.90;;;;;;5072077;28;20037;-68
2022/06/08 07:00:16;;;;;;;17.85;12.60;;;16.30;99.90;;;;;;5072313;28;20497;-68
2022/06/08 07:02:42;;;;;;;15.15;12.88;;;16.40;99.90;;;;;;5072038;28;20052;-68
2022/06/08 07:05:15;;;;;;;16.60;12.20;;;16.50;99.90;;;;;;5072034;28;20036;-68
2022/06/08 07:07:41;;;;;;;14.82;11.15;;;16.60;99.90;;;;;;5071706;28;20037;-68
2022/06/08 07:10:06;;;;;;;11.73;9.77;;;16.70;99.90;;;;;;5072035;28;20063;-69
2022/06/08 07:12:33;;;;;;;13.10;10.07;;;16.80;99.90;;;;;;5055801;28;20047;-69
2022/06/08 07:14:58;;;;;;;10.60;8.80;;;16.90;99.90;;;;;;5072524;28;20119;-69
2022/06/08 07:17:25;;;;;;;10.73;8.40;;;17.00;99.90;;;;;;5072056;28;20037;-69
2022/06/08 07:19:51;;;;;;;7.55;5.93;;;17.20;99.90;;;;;;5072205;28;20099;-69
2022/06/08 07:22:17;;;;;;;9.80;7.00;;;17.20;99.90;;;;;;5071863;28;20504;-69
2022/06/08 07:24:43;;;;;;;9.13;7.32;;;17.30;99.90;;;;;;5071790;28;20041;-69
2022/06/08 07:27:09;;;;;;;9.90;6.78;;;17.40;99.90;;;;;;5071734;28;20047;-69
2022/06/08 07:29:34;;;;;;;10.80;6.60;;;17.40;99.90;;;;;;5071708;28;20037;-69
2022/06/08 07:32:00;;;;;;;9.98;6.80;;;17.40;99.90;;;;;;5071741;28;20040;-69
2022/06/08 07:34:26;;;;;;;9.98;6.57;;;17.40;99.90;;;;;;5071727;28;20527;-69
2022/06/08 07:36:52;;;;;;;10.07;5.75;;;17.40;99.90;;;;;;5071984;28;20033;-69
2022/06/08 07:39:19;;;;;;;7.72;5.35;;;17.40;99.90;;;;;;5055260;28;20392;-69
2022/06/08 07:41:46;;;;;;;8.27;5.05;;;17.40;99.90;;;;;;5071626;28;20044;-69
2022/06/08 07:44:12;;;;;;;6.90;4.50;;;17.40;99.90;;;;;;5071895;28;20048;-69
2022/06/08 07:46:38;;;;;;;7.20;5.13;;;17.40;99.90;;;;;;5072885;28;20041;-69
2022/06/08 07:51:53;;;;;;;6.75;4.25;;;17.50;99.90;;;;;;5071568;28;20481;-69
2022/06/08 07:54:24;;;;;;;7.60;4.22;;;17.60;99.90;;;;;;5071520;28;20131;-69
2022/06/08 07:56:51;;;;;;;5.97;4.20;;;17.80;99.90;;;;;;5071719;28;20123;-68
2022/06/08 07:59:18;;;;;;;9.10;4.22;;;17.90;99.90;;;;;;5071426;28;20048;-68
2022/06/08 08:01:43;;;;;;;6.97;3.42;;;18.00;99.90;;;;;;5054880;28;20044;-68
2022/06/08 08:04:09;;;;;;;5.65;3.30;;;18.10;99.90;;;;;;5075354;28;20098;-68
2022/06/08 08:06:34;;;;;;;7.55;3.60;;;18.10;99.90;;;;;;5075265;28;20041;-68
2022/06/08 08:09:00;;;;;;;7.70;3.15;;;18.20;99.90;;;;;;5075308;28;20051;-69
2022/06/08 08:11:27;;;;;;;5.70;3.45;;;18.30;99.90;;;;;;5075186;28;20471;-69
2022/06/08 08:13:53;;;;;;;4.75;3.28;;;18.40;99.90;;;;;;5075131;28;20044;-69
2022/06/08 08:16:18;;;;;;;6.78;3.58;;;18.50;99.90;;;;;;5075069;28;20081;-69
2022/06/08 08:18:44;;;;;;;6.63;3.20;;;18.60;99.90;;;;;;5074980;28;20036;-69
2022/06/08 08:21:10;;;;;;;4.40;2.58;;;18.80;99.90;;;;;;5075283;28;20040;-69
2022/06/08 08:23:35;;;;;;;6.07;2.80;;;18.90;99.90;;;;;;5074957;28;20722;-69
2022/06/08 08:26:01;;;;;;;4.53;3.03;;;19.00;99.90;;;;;;5075166;28;20056;-69
2022/06/08 08:28:27;;;;;;;8.20;2.70;;;19.10;99.90;;;;;;5074802;28;20485;-69
2022/06/08 08:30:53;;;;;;;6.25;2.97;;;19.10;99.90;;;;;;5074817;28;20560;-69
2022/06/08 08:33:18;;;;;;;9.25;2.90;;;19.20;99.90;;;;;;5074771;28;20071;-69
2022/06/08 08:35:45;;;;;;;4.82;2.45;;;19.40;99.90;;;;;;5074994;28;20089;-69
2022/06/08 08:38:10;;;;;;;5.38;2.30;;;19.70;99.90;;;;;;5074625;28;20036;-69
2022/06/08 08:40:44;;;;;;;4.00;1.60;;;19.80;99.90;;;;;;5074925;28;20194;-69
2022/06/08 08:43:13;;;;;;;4.85;2.42;;;19.90;99.90;;;;;;5074932;28;20060;-69
2022/06/08 08:46:18;;;;;;;5.65;2.53;;;20.00;99.90;;;;;;5074507;28;20039;-69
2022/06/08 08:49:05;;;;;;;5.07;2.65;;;20.10;99.90;;;;;;5072859;28;20064;-69
2022/06/08 08:51:42;;;;;;;5.05;2.55;;;20.10;99.90;;;;;;5074442;28;20043;-68
2022/06/08 08:54:26;;;;;;;4.30;2.60;;;20.20;99.90;;;;;;5074449;28;20080;-68
2022/06/08 08:56:59;;;;;;;9.25;2.70;;;20.40;99.90;;;;;;5074301;28;20036;-68
2022/06/08 08:59:30;;;;;;;8.23;3.70;;;20.60;99.90;;;;;;5057686;28;20072;-68
2022/06/08 09:01:58;;;;;;;5.45;3.50;;;20.70;99.90;;;;;;5075585;28;20051;-68
2022/06/08 09:04:26;;;;;;;8.07;3.38;;;20.70;99.90;;;;;;5074219;28;20036;-68
2022/06/08 09:06:53;;;;;;;5.88;3.42;;;20.70;99.90;;;;;;5073968;28;20040;-68
2022/06/08 09:09:45;;;;;;;6.10;2.95;;;20.70;99.90;;;;;;5074170;28;20052;-68
2022/06/08 09:12:18;;;;;;;4.23;2.90;;;20.60;99.90;;;;;;5072430;28;20417;-69
2022/06/08 09:15:00;;;;;;;6.10;3.20;;;20.50;99.90;;;;;;5073626;28;20090;-69
2022/06/08 09:17:48;;;;;;;5.20;3.90;;;20.50;99.90;;;;;;5073930;28;20040;-69
2022/06/08 09:20:32;;;;;;;9.13;4.63;;;20.60;99.90;;;;;;5073995;28;20051;-69
2022/06/08 09:23:02;;;;;;;6.30;4.43;;;20.70;99.90;;;;;;5074199;28;20093;-69
2022/06/08 09:25:38;;;;;;;4.65;3.42;;;20.80;99.90;;;;;;5074168;28;20044;-69
2022/06/08 09:28:24;;;;;;;6.45;3.58;;;21.00;99.90;;;;;;5074049;28;20093;-69
2022/06/08 09:30:51;;;;;;;6.57;3.38;;;21.00;99.90;;;;;;5073677;28;20081;-69
2022/06/08 09:33:24;;;;;;;7.15;3.25;;;20.90;99.90;;;;;;5075193;28;20040;-69
2022/06/08 09:36:00;;;;;;;4.28;2.63;;;20.90;99.90;;;;;;5073947;28;20063;-69
2022/06/08 09:38:28;;;;;;;9.63;2.75;;;20.90;99.90;;;;;;5073465;28;20404;-69
2022/06/08 09:41:07;;;;;;;5.38;2.50;;;20.80;99.90;;;;;;5075320;28;20044;-69
2022/06/08 09:44:01;;;;;;;10.35;3.03;;;20.60;99.90;;;;;;5073797;28;20123;-69
2022/06/08 09:52:58;;;;;;;;;;;21.20;99.90;;;;;;5073815;28;20048;-69
2022/06/08 09:55:43;;;;;;;6.35;3.78;;;21.40;99.90;;;;;;5073438;28;20315;-69
2022/06/08 09:58:41;;;;;;;7.50;3.03;;;21.50;99.90;;;;;;5073350;28;20048;-69
2022/06/08 10:01:29;;;;;;;6.50;3.55;;;21.70;99.90;;;;;;5073325;28;20044;-69
2022/06/08 10:03:55;;;;;;;5.18;3.25;;;21.70;99.90;;;;;;5073316;28;20048;-69
2022/06/08 10:06:40;;;;;;;5.78;3.40;;;21.70;99.90;;;;;;5056627;28;20040;-68
2022/06/08 10:09:19;;;;;;;5.50;3.63;;;21.90;99.90;;;;;;5072673;28;20056;-68
2022/06/08 10:11:56;;;;;;;8.13;3.50;;;22.00;99.90;;;;;;5073501;28;20135;-71
2022/06/08 10:14:49;;;;;;;5.72;2.83;;;22.20;99.90;;;;;;5072891;28;20093;-69
2022/06/08 10:17:33;;;;;;;5.70;2.95;;;22.30;99.90;;;;;;5073064;28;20545;-69
2022/06/08 10:20:23;;;;;;;6.95;3.20;;;22.30;99.90;;;;;;5072775;28;20544;-69
2022/06/08 10:22:54;;;;;;;4.60;2.72;;;22.50;99.90;;;;;;5072741;28;20055;-69
2022/06/08 10:25:43;;;;;;;5.57;2.75;;;22.70;99.90;;;;;;5055787;28;20086;-69
2022/06/08 10:28:28;;;;;;;6.43;2.60;;;22.70;99.90;;;;;;5072798;28;20098;-69
2022/06/08 10:31:05;;;;;;;6.63;2.42;;;22.60;99.90;;;;;;5072537;28;20382;-69
2022/06/08 10:33:44;;;;;;;4.38;1.90;;;22.50;99.90;;;;;;5072521;28;20040;-70
2022/06/08 10:36:10;;;;;;;4.63;2.30;;;22.40;99.90;;;;;;5055793;28;20036;-69
2022/06/08 10:38:42;;;;;;;6.53;2.83;;;22.30;99.90;;;;;;5072600;28;20063;-69
2022/06/08 10:44:03;;;;;;;4.95;2.28;;;22.30;99.90;;;;;;5072291;28;20045;-69
2022/06/08 10:46:45;;;;;;;6.85;2.40;;;22.60;99.90;;;;;;5072279;28;20114;-69
2022/06/08 10:49:39;;;;;;;3.95;2.58;;;23.00;99.90;;;;;;5072367;28;20500;-69
2022/06/08 10:52:21;;;;;;;7.22;2.72;;;23.30;99.90;;;;;;5063319;28;20044;-69
2022/06/08 10:55:17;;;;;;;4.82;2.45;;;23.20;99.90;;;;;;5072186;28;20044;-69
2022/06/08 10:57:52;;;;;;;4.55;2.72;;;23.10;99.90;;;;;;5072184;28;20052;-70
2022/06/08 11:00:24;;;;;;;5.25;3.15;;;23.10;99.90;;;;;;5055461;28;20036;-69
2022/06/08 11:02:59;;;;;;;7.47;3.42;;;23.10;99.90;;;;;;5072138;28;20390;-69
2022/06/08 11:05:33;;;;;;;6.63;3.58;;;23.10;99.90;;;;;;5072069;28;20063;-69
2022/06/08 11:08:01;;;;;;;5.20;2.80;;;23.10;99.90;;;;;;5072176;28;20044;-69
2022/06/08 11:10:51;;;;;;;6.18;2.95;;;23.10;99.90;;;;;;5071858;28;20416;-69
2022/06/08 11:13:23;;;;;;;6.78;3.25;;;23.10;99.90;;;;;;5071928;28;20041;-69
2022/06/08 11:16:12;;;;;;;7.63;3.70;;;22.80;99.90;;;;;;5072179;28;20040;-69
2022/06/08 11:18:48;;;;;;;7.88;4.18;;;22.60;99.90;;;;;;5071789;28;20045;-69
2022/06/08 11:21:14;;;;;;;8.13;3.95;;;22.40;99.90;;;;;;5055135;28;20037;-68
2022/06/08 11:23:57;;;;;;;7.00;3.50;;;22.20;99.90;;;;;;5072092;28;20051;-68
2022/06/08 11:26:28;;;;;;;8.90;3.97;;;22.00;99.90;;;;;;5071822;28;20040;-68
2022/06/08 11:29:22;;;;;;;6.05;3.72;;;21.90;99.90;;;;;;5071615;28;20051;-69
2022/06/08 11:31:52;;;;;;;10.60;4.30;;;21.90;99.90;;;;;;5071745;28;20488;-69
2022/06/08 11:34:21;;;;;;;6.70;3.97;;;21.80;99.90;;;;;;5071705;28;20033;-68
2022/06/08 11:37:20;;;;;;;5.05;3.45;;;21.70;99.90;;;;;;5055221;28;20044;-69
2022/06/08 11:40:19;;;;;;;5.90;3.45;;;21.60;99.90;;;;;;5076152;28;20151;-69
2022/06/08 11:42:53;;;;;;;9.60;3.40;;;21.50;99.90;;;;;;5075942;28;20051;-69
2022/06/08 11:45:38;;;;;;;9.07;3.30;;;21.40;99.90;;;;;;5077018;28;20035;-69
2022/06/08 11:48:19;;;;;;;8.15;3.38;;;21.30;99.90;;;;;;5076001;28;20049;-69
2022/06/08 11:51:00;;;;;;;6.97;2.70;;;21.10;99.90;;;;;;5075730;28;20132;-69
2022/06/08 11:53:35;;;;;;;6.47;3.00;;;21.00;99.90;;;;;;5075676;28;20041;-70
2022/06/08 11:56:48;;;;;;;5.35;3.20;;;20.90;99.90;;;;;;5075809;28;20072;-70
2022/06/08 11:59:20;;;;;;;8.20;1.80;;;20.70;99.90;;;;;;5038369;28;20067;-70
2022/06/08 12:01:55;;;;;;;6.45;1.65;;;20.30;99.90;;;;;;5038069;28;20057;-69
2022/06/08 12:04:27;;;;;;;11.10;1.50;;;19.90;99.90;;;;;;5038062;28;20041;-69
2022/06/08 12:06:56;;;;;;;8.60;1.88;;;19.40;99.90;;;;;;5037500;28;20138;-69
2022/06/08 12:09:47;;;;;;;9.38;2.10;;;19.10;99.90;;;;;;5054448;28;20413;-69
2022/06/08 12:12:18;;;;;;;6.30;1.58;;;18.80;99.90;;;;;;5051989;28;20190;-69
2022/06/08 12:14:44;;;;;;;10.18;2.13;;;18.60;99.90;;;;;;5037821;28;20056;-69
2022/06/08 12:17:09;;;;;;;7.50;1.58;;;18.40;99.90;;;;;;5037447;28;20048;-69
2022/06/08 12:19:53;;;;;;;7.57;1.67;;;18.30;99.90;;;;;;5037523;28;20149;-69
2022/06/08 12:22:22;;;;;;;8.52;1.70;;;18.10;99.90;;;;;;5021131;28;20048;-70
2022/06/08 12:25:09;;;;;;;7.35;1.52;;;17.90;99.90;;;;;;5037683;28;20045;-70
2022/06/08 12:27:41;;;;;;;6.28;1.55;;;17.90;99.90;;;;;;5037550;28;20052;-69
2022/06/08 12:30:29;;;;;;;6.05;1.52;;;17.80;99.90;;;;;;5037405;28;20040;-69
2022/06/08 12:33:18;;;;;;;8.38;1.90;;;17.70;99.90;;;;;;5052919;28;20045;-69
2022/06/08 12:36:08;;;;;;;5.97;1.52;;;17.70;99.90;;;;;;5075086;28;20094;-69
2022/06/08 12:38:37;;;;;;;7.97;1.73;;;17.50;99.90;;;;;;5058011;28;20055;-69
2022/06/08 12:41:16;;;;;;;7.30;1.92;;;17.50;99.90;;;;;;5074836;28;20079;-70
2022/06/08 12:43:51;;;;;;;6.68;2.22;;;17.50;99.90;;;;;;5074718;28;20044;-70
2022/06/08 12:46:31;;;;;;;10.10;1.88;;;17.40;99.90;;;;;;5074871;28;20098;-70
2022/06/08 12:49:14;;;;;;;6.22;1.85;;;17.40;99.90;;;;;;5073308;28;20532;-69
2022/06/08 12:51:45;;;;;;;10.57;1.77;;;17.60;99.90;;;;;;5074562;28;20115;-69
2022/06/08 12:54:32;;;;;;;6.03;1.90;;;17.50;99.90;;;;;;5058647;28;20044;-69
2022/06/08 12:57:17;;;;;;;8.85;2.75;;;17.50;99.90;;;;;;5074349;28;20044;-69
2022/06/08 12:59:44;;;;;;;10.88;3.15;;;17.60;99.90;;;;;;5057967;28;20051;-69
2022/06/08 13:02:23;;;;;;;7.32;3.10;;;17.50;99.90;;;;;;5074317;28;20052;-69
2022/06/08 13:04:50;;;;;;;8.80;4.18;;;17.60;99.90;;;;;;5074331;28;20048;-69
2022/06/08 13:07:20;;;;;;;8.23;3.30;;;17.60;99.90;;;;;;5073865;28;20378;-69
2022/06/08 13:09:48;;;;;;;10.70;4.13;;;17.60;99.90;;;;;;5074100;28;20033;-69
2022/06/08 13:12:22;;;;;;;9.52;4.25;;;17.60;99.90;;;;;;5074125;28;20389;-69
2022/06/08 13:14:48;;;;;;;9.50;4.38;;;17.70;99.90;;;;;;5074311;28;20045;-69
2022/06/08 13:17:13;;;;;;;9.77;4.63;;;17.70;99.90;;;;;;5073940;28;20051;-70
2022/06/08 13:19:39;;;;;;;12.25;4.70;;;17.80;99.90;;;;;;5073920;28;20033;-70